sensor_id;sensor_type;location;lat;lon;timestamp;pressure;altitude;pressure_sealevel;temperature
45393;BMP280;31129;44.810;10.334;2024-02-26T00:00:03;76533.28;;;10.61
45393;BMP280;31129;44.810;10.334;2024-02-26T00:02:30;76537.06;;;10.60
45393;BMP280;31129;44.810;10.334;2024-02-26T00:04:57;76532.13;;;10.55
45393;BMP280;31129;44.810;10.334;2024-02-26T00:07:22;76525.63;;;10.54
45393;BMP280;31129;44.810;10.334;2024-02-26T00:09:48;76526.72;;;10.55
45393;BMP280;31129;44.810;10.334;2024-02-26T00:12:13;76533.81;;;10.59
45393;BMP280;31129;44.810;10.334;2024-02-26T00:14:39;76514.19;;;10.49
45393;BMP280;31129;44.810;10.334;2024-02-26T00:17:04;76513.06;;;10.43
45393;BMP280;31129;44.810;10.334;2024-02-26T00:19:30;76523.41;;;10.50
45393;BMP280;31129;44.810;10.334;2024-02-26T00:21:55;76524.00;;;10.55
45393;BMP280;31129;44.810;10.334;2024-02-26T00:24:21;76513.06;;;10.45
45393;BMP280;31129;44.810;10.334;2024-02-26T00:26:46;76524.50;;;10.51
45393;BMP280;31129;44.810;10.334;2024-02-26T00:29:18;76519.56;;;10.46
45393;BMP280;31129;44.810;10.334;2024-02-26T00:31:44;76526.69;;;10.53
45393;BMP280;31129;44.810;10.334;2024-02-26T00:34:09;76536.53;;;10.59
45393;BMP280;31129;44.810;10.334;2024-02-26T00:36:35;76531.63;;;10.57
45393;BMP280;31129;44.810;10.334;2024-02-26T00:39:00;76517.41;;;10.44
45393;BMP280;31129;44.810;10.334;2024-02-26T00:41:26;76512.44;;;10.40
45393;BMP280;31129;44.810;10.334;2024-02-26T00:43:51;76517.94;;;10.45
45393;BMP280;31129;44.810;10.334;2024-02-26T00:46:17;76507.00;;;10.35
45393;BMP280;31129;44.810;10.334;2024-02-26T00:48:42;76497.16;;;10.28
45393;BMP280;31129;44.810;10.334;2024-02-26T00:51:08;76494.44;;;10.25
45393;BMP280;31129;44.810;10.334;2024-02-26T00:53:34;76494.94;;;10.23
45393;BMP280;31129;44.810;10.334;2024-02-26T00:55:59;76486.19;;;10.15
45393;BMP280;31129;44.810;10.334;2024-02-26T00:58:25;76482.44;;;10.17
45393;BMP280;31129;44.810;10.334;2024-02-26T01:00:51;76490.03;;;10.19
45393;BMP280;31129;44.810;10.334;2024-02-26T01:03:19;76482.44;;;10.17
45393;BMP280;31129;44.810;10.334;2024-02-26T01:05:45;76486.78;;;10.18
45393;BMP280;31129;44.810;10.334;2024-02-26T01:08:10;76469.78;;;10.03
45393;BMP280;31129;44.810;10.334;2024-02-26T01:10:36;76477.97;;;10.08
45393;BMP280;31129;44.810;10.334;2024-02-26T01:13:01;76464.88;;;9.98
45393;BMP280;31129;44.810;10.334;2024-02-26T01:15:27;76482.94;;;10.15
45393;BMP280;31129;44.810;10.334;2024-02-26T01:17:53;76486.19;;;10.15
45393;BMP280;31129;44.810;10.334;2024-02-26T01:20:19;76446.75;;;9.76
45393;BMP280;31129;44.810;10.334;2024-02-26T01:22:44;76444.66;;;9.82
45393;BMP280;31129;44.810;10.334;2024-02-26T01:25:10;76458.25;;;9.89
45393;BMP280;31129;44.810;10.334;2024-02-26T01:27:37;76468.13;;;9.98
45393;BMP280;31129;44.810;10.334;2024-02-26T01:30:03;76454.44;;;9.86
45393;BMP280;31129;44.810;10.334;2024-02-26T01:32:29;76442.94;;;9.75
45393;BMP280;31129;44.810;10.334;2024-02-26T01:34:55;76442.41;;;9.75
45393;BMP280;31129;44.810;10.334;2024-02-26T01:37:21;76437.97;;;9.68
45393;BMP280;31129;44.810;10.334;2024-02-26T01:39:46;76441.84;;;9.74
45393;BMP280;31129;44.810;10.334;2024-02-26T01:42:12;76436.38;;;9.69
45393;BMP280;31129;44.810;10.334;2024-02-26T01:44:38;76436.88;;;9.67
45393;BMP280;31129;44.810;10.334;2024-02-26T01:47:04;76439.66;;;9.72
45393;BMP280;31129;44.810;10.334;2024-02-26T01:49:31;76446.75;;;9.79
45393;BMP280;31129;44.810;10.334;2024-02-26T01:51:57;76438.56;;;9.71
45393;BMP280;31129;44.810;10.334;2024-02-26T01:54:23;76426.63;;;9.68
45393;BMP280;31129;44.810;10.334;2024-02-26T01:56:49;76436.41;;;9.72
45393;BMP280;31129;44.810;10.334;2024-02-26T01:59:16;76447.88;;;9.80
45393;BMP280;31129;44.810;10.334;2024-02-26T02:01:44;76435.91;;;9.74
45393;BMP280;31129;44.810;10.334;2024-02-26T02:04:14;76444.06;;;9.79
45393;BMP280;31129;44.810;10.334;2024-02-26T02:06:41;76436.44;;;9.74
45393;BMP280;31129;44.810;10.334;2024-02-26T02:09:08;76437.50;;;9.73
45393;BMP280;31129;44.810;10.334;2024-02-26T02:11:34;76420.50;;;9.54
45393;BMP280;31129;44.810;10.334;2024-02-26T02:13:59;76414.56;;;9.54
45393;BMP280;31129;44.810;10.334;2024-02-26T02:16:25;76417.72;;;9.49
45393;BMP280;31129;44.810;10.334;2024-02-26T02:18:50;76407.41;;;9.45
45393;BMP280;31129;44.810;10.334;2024-02-26T02:21:16;76400.88;;;9.41
45393;BMP280;31129;44.810;10.334;2024-02-26T02:23:41;76421.66;;;9.58
45393;BMP280;31129;44.810;10.334;2024-02-26T02:26:12;76412.91;;;9.52
45393;BMP280;31129;44.810;10.334;2024-02-26T02:28:38;76439.59;;;9.67
45393;BMP280;31129;44.810;10.334;2024-02-26T02:31:05;76422.69;;;9.56
45393;BMP280;31129;44.810;10.334;2024-02-26T02:33:31;76409.59;;;9.47
45393;BMP280;31129;44.810;10.334;2024-02-26T02:35:56;76427.06;;;9.60
45393;BMP280;31129;44.810;10.334;2024-02-26T02:38:23;76419.97;;;9.54
45393;BMP280;31129;44.810;10.334;2024-02-26T02:40:51;76420.00;;;9.56
45393;BMP280;31129;44.810;10.334;2024-02-26T02:43:17;76424.34;;;9.60
45393;BMP280;31129;44.810;10.334;2024-02-26T02:45:43;76432.50;;;9.63
45393;BMP280;31129;44.810;10.334;2024-02-26T02:48:08;76434.75;;;9.70
45393;BMP280;31129;44.810;10.334;2024-02-26T02:50:34;76436.38;;;9.69
45393;BMP280;31129;44.810;10.334;2024-02-26T02:52:59;76435.88;;;9.71
45393;BMP280;31129;44.810;10.334;2024-02-26T02:55:25;76436.91;;;9.70
45393;BMP280;31129;44.810;10.334;2024-02-26T02:57:50;76436.38;;;9.69
45393;BMP280;31129;44.810;10.334;2024-02-26T03:00:16;76450.56;;;9.80
45393;BMP280;31129;44.810;10.334;2024-02-26T03:02:42;76485.13;;;10.17
45393;BMP280;31129;44.810;10.334;2024-02-26T03:05:08;76438.59;;;9.74
45393;BMP280;31129;44.810;10.334;2024-02-26T03:07:34;76415.03;;;9.49
45393;BMP280;31129;44.810;10.334;2024-02-26T03:09:59;76399.13;;;9.32
45393;BMP280;31129;44.810;10.334;2024-02-26T03:12:25;76391.00;;;9.32
45393;BMP280;31129;44.810;10.334;2024-02-26T03:14:51;76410.72;;;9.50
45393;BMP280;31129;44.810;10.334;2024-02-26T03:17:17;76382.75;;;9.19
45393;BMP280;31129;44.810;10.334;2024-02-26T03:19:44;76384.94;;;9.21
45393;BMP280;31129;44.810;10.334;2024-02-26T03:22:12;76398.63;;;9.34
45393;BMP280;31129;44.810;10.334;2024-02-26T03:24:38;76392.59;;;9.28
45393;BMP280;31129;44.810;10.334;2024-02-26T03:27:03;76391.50;;;9.27
45393;BMP280;31129;44.810;10.334;2024-02-26T03:29:35;76396.47;;;9.35
45393;BMP280;31129;44.810;10.334;2024-02-26T03:32:00;76421.59;;;9.55
45393;BMP280;31129;44.810;10.334;2024-02-26T03:34:26;76411.19;;;9.46
45393;BMP280;31129;44.810;10.334;2024-02-26T03:36:52;76410.09;;;9.45
45393;BMP280;31129;44.810;10.334;2024-02-26T03:39:17;76409.59;;;9.47
45393;BMP280;31129;44.810;10.334;2024-02-26T03:41:43;76417.25;;;9.54
45393;BMP280;31129;44.810;10.334;2024-02-26T03:44:09;76428.16;;;9.61
45393;BMP280;31129;44.810;10.334;2024-02-26T03:46:35;76431.47;;;9.67
45393;BMP280;31129;44.810;10.334;2024-02-26T03:49:00;76430.41;;;9.66
45393;BMP280;31129;44.810;10.334;2024-02-26T03:51:26;76424.41;;;9.63
45393;BMP280;31129;44.810;10.334;2024-02-26T03:53:53;76430.34;;;9.63
45393;BMP280;31129;44.810;10.334;2024-02-26T03:56:19;76423.25;;;9.59
45393;BMP280;31129;44.810;10.334;2024-02-26T03:58:45;76426.06;;;9.65
45393;BMP280;31129;44.810;10.334;2024-02-26T04:01:11;76444.66;;;9.82
45393;BMP280;31129;44.810;10.334;2024-02-26T04:03:36;76430.97;;;9.67
45393;BMP280;31129;44.810;10.334;2024-02-26T04:06:02;76418.41;;;9.57
45393;BMP280;31129;44.810;10.334;2024-02-26T04:08:28;76427.19;;;9.68
45393;BMP280;31129;44.810;10.334;2024-02-26T04:10:53;76442.97;;;9.78
45393;BMP280;31129;44.810;10.334;2024-02-26T04:13:19;76448.47;;;9.85
45393;BMP280;31129;44.810;10.334;2024-02-26T04:15:45;76431.56;;;9.72
45393;BMP280;31129;44.810;10.334;2024-02-26T04:18:11;76432.06;;;9.70
45393;BMP280;31129;44.810;10.334;2024-02-26T04:20:36;76425.47;;;9.61
45393;BMP280;31129;44.810;10.334;2024-02-26T04:23:03;76416.22;;;9.55
45393;BMP280;31129;44.810;10.334;2024-02-26T04:25:28;76420.00;;;9.59
45393;BMP280;31129;44.810;10.334;2024-02-26T04:27:54;76428.81;;;9.70
45393;BMP280;31129;44.810;10.334;2024-02-26T04:30:20;76442.41;;;9.75
45393;BMP280;31129;44.810;10.334;2024-02-26T04:32:45;76423.84;;;9.62
45393;BMP280;31129;44.810;10.334;2024-02-26T04:35:11;76440.81;;;9.78
45393;BMP280;31129;44.810;10.334;2024-02-26T04:37:36;76449.03;;;9.86
45393;BMP280;31129;44.810;10.334;2024-02-26T04:40:02;76431.00;;;9.72
45393;BMP280;31129;44.810;10.334;2024-02-26T04:42:28;76437.50;;;9.73
45393;BMP280;31129;44.810;10.334;2024-02-26T04:44:56;76437.00;;;9.75
45393;BMP280;31129;44.810;10.334;2024-02-26T04:47:22;76435.34;;;9.73
45393;BMP280;31129;44.810;10.334;2024-02-26T04:49:49;76435.34;;;9.73
45393;BMP280;31129;44.810;10.334;2024-02-26T04:52:15;76435.91;;;9.74
45393;BMP280;31129;44.810;10.334;2024-02-26T04:54:40;76428.84;;;9.72
45393;BMP280;31129;44.810;10.334;2024-02-26T04:57:06;76439.72;;;9.77
45393;BMP280;31129;44.810;10.334;2024-02-26T04:59:31;76444.13;;;9.81
45393;BMP280;31129;44.810;10.334;2024-02-26T05:01:57;76433.72;;;9.72
45393;BMP280;31129;44.810;10.334;2024-02-26T05:04:22;76428.25;;;9.67
45393;BMP280;31129;44.810;10.334;2024-02-26T05:06:48;76448.53;;;9.88
45393;BMP280;31129;44.810;10.334;2024-02-26T05:09:13;76429.38;;;9.70
45393;BMP280;31129;44.810;10.334;2024-02-26T05:11:39;76421.13;;;9.60
45393;BMP280;31129;44.810;10.334;2024-02-26T05:14:04;76409.66;;;9.52
45393;BMP280;31129;44.810;10.334;2024-02-26T05:16:29;76404.78;;;9.50
45393;BMP280;31129;44.810;10.334;2024-02-26T05:18:56;76400.88;;;9.41
45393;BMP280;31129;44.810;10.334;2024-02-26T05:21:22;76412.91;;;9.52
45393;BMP280;31129;44.810;10.334;2024-02-26T05:23:47;76403.72;;;9.49
45393;BMP280;31129;44.810;10.334;2024-02-26T05:26:19;76400.31;;;9.41
45393;BMP280;31129;44.810;10.334;2024-02-26T05:28:45;76388.97;;;9.38
45393;BMP280;31129;44.810;10.334;2024-02-26T05:31:13;76384.53;;;9.31
45393;BMP280;31129;44.810;10.334;2024-02-26T05:33:39;76397.63;;;9.41
45393;BMP280;31129;44.810;10.334;2024-02-26T05:36:04;76392.16;;;9.36
45393;BMP280;31129;44.810;10.334;2024-02-26T05:38:30;76375.22;;;9.20
45393;BMP280;31129;44.810;10.334;2024-02-26T05:40:57;76375.78;;;9.23
45393;BMP280;31129;44.810;10.334;2024-02-26T05:43:24;76373.63;;;9.23
45393;BMP280;31129;44.810;10.334;2024-02-26T05:45:50;76389.97;;;9.34
45393;BMP280;31129;44.810;10.334;2024-02-26T05:48:15;76373.06;;;9.20
45393;BMP280;31129;44.810;10.334;2024-02-26T05:50:41;76367.06;;;9.17
45393;BMP280;31129;44.810;10.334;2024-02-26T05:53:06;76382.34;;;9.29
45393;BMP280;31129;44.810;10.334;2024-02-26T05:55:32;76396.53;;;9.40
45393;BMP280;31129;44.810;10.334;2024-02-26T05:57:58;76374.69;;;9.22
45393;BMP280;31129;44.810;10.334;2024-02-26T06:00:23;76381.75;;;9.26
45393;BMP280;31129;44.810;10.334;2024-02-26T06:02:52;76381.22;;;9.25
45393;BMP280;31129;44.810;10.334;2024-02-26T06:05:17;76372.44;;;9.17
45393;BMP280;31129;44.810;10.334;2024-02-26T06:07:43;76370.31;;;9.18
45393;BMP280;31129;44.810;10.334;2024-02-26T06:10:08;76370.31;;;9.18
45393;BMP280;31129;44.810;10.334;2024-02-26T06:12:37;76382.34;;;9.29
45393;BMP280;31129;44.810;10.334;2024-02-26T06:15:03;76372.50;;;9.20
45393;BMP280;31129;44.810;10.334;2024-02-26T06:17:29;76372.50;;;9.20
45393;BMP280;31129;44.810;10.334;2024-02-26T06:19:55;76378.50;;;9.25
45393;BMP280;31129;44.810;10.334;2024-02-26T06:22:20;76380.13;;;9.24
45393;BMP280;31129;44.810;10.334;2024-02-26T06:24:46;76374.72;;;9.24
45393;BMP280;31129;44.810;10.334;2024-02-26T06:27:11;76381.28;;;9.31
45393;BMP280;31129;44.810;10.334;2024-02-26T06:29:37;76384.53;;;9.31
45393;BMP280;31129;44.810;10.334;2024-02-26T06:32:03;76387.81;;;9.34
45393;BMP280;31129;44.810;10.334;2024-02-26T06:34:29;76379.66;;;9.29
45393;BMP280;31129;44.810;10.334;2024-02-26T06:36:54;76375.22;;;9.20
45393;BMP280;31129;44.810;10.334;2024-02-26T06:39:20;76380.69;;;9.27
45393;BMP280;31129;44.810;10.334;2024-02-26T06:41:45;76370.94;;;9.23
45393;BMP280;31129;44.810;10.334;2024-02-26T06:44:13;76369.75;;;9.17
45393;BMP280;31129;44.810;10.334;2024-02-26T06:46:38;76373.06;;;9.23
45393;BMP280;31129;44.810;10.334;2024-02-26T06:49:05;76368.22;;;9.21
45393;BMP280;31129;44.810;10.334;2024-02-26T06:51:30;76370.88;;;9.18
45393;BMP280;31129;44.810;10.334;2024-02-26T06:53:56;76356.69;;;9.08
45393;BMP280;31129;44.810;10.334;2024-02-26T06:56:21;76364.28;;;9.12
45393;BMP280;31129;44.810;10.334;2024-02-26T06:58:47;76358.88;;;9.12
45393;BMP280;31129;44.810;10.334;2024-02-26T07:01:12;76357.72;;;9.06
45393;BMP280;31129;44.810;10.334;2024-02-26T07:03:40;76348.47;;;9.00
45393;BMP280;31129;44.810;10.334;2024-02-26T07:06:06;76345.13;;;8.94
45393;BMP280;31129;44.810;10.334;2024-02-26T07:08:32;76342.44;;;8.94
45393;BMP280;31129;44.810;10.334;2024-02-26T07:10:58;76352.88;;;9.07
45393;BMP280;31129;44.810;10.334;2024-02-26T07:13:23;76346.78;;;8.96
45393;BMP280;31129;44.810;10.334;2024-02-26T07:15:49;76345.69;;;8.95
45393;BMP280;31129;44.810;10.334;2024-02-26T07:18:14;76359.41;;;9.10
45393;BMP280;31129;44.810;10.334;2024-02-26T07:20:40;76348.53;;;9.03
45393;BMP280;31129;44.810;10.334;2024-02-26T07:23:05;76342.47;;;8.97
45393;BMP280;31129;44.810;10.334;2024-02-26T07:25:32;76351.22;;;9.03
45393;BMP280;31129;44.810;10.334;2024-02-26T07:27:57;76354.47;;;9.06
45393;BMP280;31129;44.810;10.334;2024-02-26T07:30:24;76345.19;;;8.97
45393;BMP280;31129;44.810;10.334;2024-02-26T07:32:50;76349.56;;;9.01
45393;BMP280;31129;44.810;10.334;2024-02-26T07:35:15;76353.97;;;9.08
45393;BMP280;31129;44.810;10.334;2024-02-26T07:37:42;76345.19;;;8.97
45393;BMP280;31129;44.810;10.334;2024-02-26T07:40:08;76353.47;;;9.10
45393;BMP280;31129;44.810;10.334;2024-02-26T07:42:34;76359.91;;;9.08
45393;BMP280;31129;44.810;10.334;2024-02-26T07:44:59;76350.63;;;9.00
45393;BMP280;31129;44.810;10.334;2024-02-26T07:47:25;76341.38;;;8.96
45393;BMP280;31129;44.810;10.334;2024-02-26T07:49:50;76360.53;;;9.14
45393;BMP280;31129;44.810;10.334;2024-02-26T07:52:16;76359.34;;;9.05
45393;BMP280;31129;44.810;10.334;2024-02-26T07:54:41;76353.44;;;9.07
45393;BMP280;31129;44.810;10.334;2024-02-26T07:57:07;76351.78;;;9.06
45393;BMP280;31129;44.810;10.334;2024-02-26T07:59:32;76361.56;;;9.12
45393;BMP280;31129;44.810;10.334;2024-02-26T08:01:58;76369.75;;;9.17
45393;BMP280;31129;44.810;10.334;2024-02-26T08:04:24;76367.06;;;9.17
45393;BMP280;31129;44.810;10.334;2024-02-26T08:06:49;76368.22;;;9.21
45393;BMP280;31129;44.810;10.334;2024-02-26T08:09:15;76377.41;;;9.24
45393;BMP280;31129;44.810;10.334;2024-02-26T08:11:40;76377.41;;;9.24
45393;BMP280;31129;44.810;10.334;2024-02-26T08:14:06;76377.50;;;9.29
45393;BMP280;31129;44.810;10.334;2024-02-26T08:16:31;76381.81;;;9.31
45393;BMP280;31129;44.810;10.334;2024-02-26T08:18:57;76381.31;;;9.33
45393;BMP280;31129;44.810;10.334;2024-02-26T08:21:23;76392.75;;;9.39
45393;BMP280;31129;44.810;10.334;2024-02-26T08:23:48;76392.22;;;9.38
45393;BMP280;31129;44.810;10.334;2024-02-26T08:26:14;76404.78;;;9.50
45393;BMP280;31129;44.810;10.334;2024-02-26T08:28:39;76396.59;;;9.45
45393;BMP280;31129;44.810;10.334;2024-02-26T08:31:05;76401.53;;;9.49
45393;BMP280;31129;44.810;10.334;2024-02-26T08:33:30;76414.06;;;9.58
45393;BMP280;31129;44.810;10.334;2024-02-26T08:35:56;76423.41;;;9.70
45393;BMP280;31129;44.810;10.334;2024-02-26T08:38:22;76415.72;;;9.60
45393;BMP280;31129;44.810;10.334;2024-02-26T08:40:48;76417.97;;;9.65
45393;BMP280;31129;44.810;10.334;2024-02-26T08:43:14;76419.00;;;9.63
45393;BMP280;31129;44.810;10.334;2024-02-26T08:45:39;76413.00;;;9.60
45393;BMP280;31129;44.810;10.334;2024-02-26T08:48:05;76415.25;;;9.65
45393;BMP280;31129;44.810;10.334;2024-02-26T08:50:31;76412.41;;;9.54
45393;BMP280;31129;44.810;10.334;2024-02-26T08:52:57;76403.16;;;9.51
45393;BMP280;31129;44.810;10.334;2024-02-26T08:55:22;76421.22;;;9.65
45393;BMP280;31129;44.810;10.334;2024-02-26T08:57:48;76416.25;;;9.60
45393;BMP280;31129;44.810;10.334;2024-02-26T09:00:14;76431.03;;;9.74
45393;BMP280;31129;44.810;10.334;2024-02-26T09:02:41;76449.06;;;9.88
45393;BMP280;31129;44.810;10.334;2024-02-26T09:05:09;76431.03;;;9.74
45393;BMP280;31129;44.810;10.334;2024-02-26T09:07:35;76420.16;;;9.69
45393;BMP280;31129;44.810;10.334;2024-02-26T09:10:01;76427.78;;;9.74
45393;BMP280;31129;44.810;10.334;2024-02-26T09:12:27;76422.84;;;9.67
45393;BMP280;31129;44.810;10.334;2024-02-26T09:14:53;76421.75;;;9.66
45393;BMP280;31129;44.810;10.334;2024-02-26T09:17:21;76420.06;;;9.61
45393;BMP280;31129;44.810;10.334;2024-02-26T09:19:47;76434.84;;;9.78
45393;BMP280;31129;44.810;10.334;2024-02-26T09:22:12;76433.75;;;9.77
45393;BMP280;31129;44.810;10.334;2024-02-26T09:24:38;76440.38;;;9.85
45393;BMP280;31129;44.810;10.334;2024-02-26T09:27:03;76438.16;;;9.81
45393;BMP280;31129;44.810;10.334;2024-02-26T09:29:29;76455.69;;;9.97
45393;BMP280;31129;44.810;10.334;2024-02-26T09:31:54;76469.38;;;10.10
45393;BMP280;31129;44.810;10.334;2024-02-26T09:34:20;76461.16;;;10.02
45393;BMP280;31129;44.810;10.334;2024-02-26T09:36:45;76471.56;;;10.14
45393;BMP280;31129;44.810;10.334;2024-02-26T09:39:11;76475.91;;;10.16
45393;BMP280;31129;44.810;10.334;2024-02-26T09:41:37;76475.91;;;10.16
45393;BMP280;31129;44.810;10.334;2024-02-26T09:44:04;76486.34;;;10.28
45393;BMP280;31129;44.810;10.334;2024-02-26T09:46:30;76484.13;;;10.23
45393;BMP280;31129;44.810;10.334;2024-02-26T09:48:56;76478.63;;;10.16
45393;BMP280;31129;44.810;10.334;2024-02-26T09:51:23;76473.81;;;10.19
45393;BMP280;31129;44.810;10.334;2024-02-26T09:53:52;76478.66;;;10.18
45393;BMP280;31129;44.810;10.334;2024-02-26T09:56:18;76481.38;;;10.18
45393;BMP280;31129;44.810;10.334;2024-02-26T09:58:44;76486.28;;;10.23
45393;BMP280;31129;44.810;10.334;2024-02-26T10:01:18;76484.63;;;10.21
45393;BMP280;31129;44.810;10.334;2024-02-26T10:03:48;76493.97;;;10.32
45393;BMP280;31129;44.810;10.334;2024-02-26T10:06:17;76499.50;;;10.40
45393;BMP280;31129;44.810;10.334;2024-02-26T10:08:43;76496.19;;;10.37
45393;BMP280;31129;44.810;10.334;2024-02-26T10:11:10;76496.72;;;10.38
45393;BMP280;31129;44.810;10.334;2024-02-26T10:13:35;76503.34;;;10.44
45393;BMP280;31129;44.810;10.334;2024-02-26T10:16:02;76508.22;;;10.46
45393;BMP280;31129;44.810;10.334;2024-02-26T10:18:52;76513.09;;;10.48
45393;BMP280;31129;44.810;10.334;2024-02-26T10:21:20;76500.00;;;10.38
45393;BMP280;31129;44.810;10.334;2024-02-26T10:23:46;76520.25;;;10.57
45393;BMP280;31129;44.810;10.334;2024-02-26T10:26:13;76500.00;;;10.38
45393;BMP280;31129;44.810;10.334;2024-02-26T10:28:42;76503.84;;;10.42
45393;BMP280;31129;44.810;10.334;2024-02-26T10:31:08;76498.94;;;10.40
45393;BMP280;31129;44.810;10.334;2024-02-26T10:33:35;76504.44;;;10.47
45393;BMP280;31129;44.810;10.334;2024-02-26T10:36:07;76509.84;;;10.47
45393;BMP280;31129;44.810;10.334;2024-02-26T10:38:34;76515.84;;;10.50
45393;BMP280;31129;44.810;10.334;2024-02-26T10:41:02;76511.50;;;10.49
45393;BMP280;31129;44.810;10.334;2024-02-26T10:43:27;76508.75;;;10.46
45393;BMP280;31129;44.810;10.334;2024-02-26T10:45:55;76496.16;;;10.35
45393;BMP280;31129;44.810;10.334;2024-02-26T10:48:21;76509.84;;;10.47
45393;BMP280;31129;44.810;10.334;2024-02-26T10:50:47;76513.66;;;10.48
45393;BMP280;31129;44.810;10.334;2024-02-26T10:53:16;76525.66;;;10.57
45393;BMP280;31129;44.810;10.334;2024-02-26T10:55:58;76528.47;;;10.64
45393;BMP280;31129;44.810;10.334;2024-02-26T10:58:27;76523.50;;;10.57
45393;BMP280;31129;44.810;10.334;2024-02-26T11:00:53;76534.47;;;10.70
45393;BMP280;31129;44.810;10.334;2024-02-26T11:03:20;76535.06;;;10.73
45393;BMP280;31129;44.810;10.334;2024-02-26T11:05:48;76536.16;;;10.74
45393;BMP280;31129;44.810;10.334;2024-02-26T11:08:14;76534.53;;;10.73
45393;BMP280;31129;44.810;10.334;2024-02-26T11:10:40;76529.56;;;10.65
45393;BMP280;31129;44.810;10.334;2024-02-26T11:13:09;76535.59;;;10.71
45393;BMP280;31129;44.810;10.334;2024-02-26T11:15:37;76538.91;;;10.77
45393;BMP280;31129;44.810;10.334;2024-02-26T11:18:05;76550.34;;;10.85
45393;BMP280;31129;44.810;10.334;2024-02-26T11:20:32;76552.59;;;10.89
45393;BMP280;31129;44.810;10.334;2024-02-26T11:22:58;76553.13;;;10.90
45393;BMP280;31129;44.810;10.334;2024-02-26T11:25:24;76554.78;;;10.91
45393;BMP280;31129;44.810;10.334;2024-02-26T11:27:58;76545.47;;;10.83
45393;BMP280;31129;44.810;10.334;2024-02-26T11:30:25;76559.66;;;10.93
45393;BMP280;31129;44.810;10.334;2024-02-26T11:32:51;76569.53;;;11.02
45393;BMP280;31129;44.810;10.334;2024-02-26T11:35:18;76572.28;;;11.08
45393;BMP280;31129;44.810;10.334;2024-02-26T11:37:54;76567.31;;;11.00
45393;BMP280;31129;44.810;10.334;2024-02-26T11:40:23;76576.59;;;11.07
45393;BMP280;31129;44.810;10.334;2024-02-26T11:42:49;76551.44;;;10.86
45393;BMP280;31129;44.810;10.334;2024-02-26T11:45:47;76562.34;;;10.93
45393;BMP280;31129;44.810;10.334;2024-02-26T11:48:19;76552.59;;;10.89
45393;BMP280;31129;44.810;10.334;2024-02-26T11:50:47;76552.00;;;10.86
45393;BMP280;31129;44.810;10.334;2024-02-26T11:53:20;76549.84;;;10.87
45393;BMP280;31129;44.810;10.334;2024-02-26T11:55:45;76555.28;;;10.89
45393;BMP280;31129;44.810;10.334;2024-02-26T11:58:11;76564.03;;;10.97
45393;BMP280;31129;44.810;10.334;2024-02-26T12:00:36;76562.97;;;10.99
45393;BMP280;31129;44.810;10.334;2024-02-26T12:03:02;76560.22;;;10.96
45393;BMP280;31129;44.810;10.334;2024-02-26T12:05:32;76556.38;;;10.90
45393;BMP280;31129;44.810;10.334;2024-02-26T12:08:07;76558.06;;;10.97
45393;BMP280;31129;44.810;10.334;2024-02-26T12:10:35;76575.00;;;11.08
45393;BMP280;31129;44.810;10.334;2024-02-26T12:13:12;76591.97;;;11.23
45393;BMP280;31129;44.810;10.334;2024-02-26T12:18:06;76611.66;;;11.42
45393;BMP280;31129;44.810;10.334;2024-02-26T12:20:33;76609.47;;;11.37
45393;BMP280;31129;44.810;10.334;2024-02-26T12:22:59;76617.72;;;11.50
45393;BMP280;31129;44.810;10.334;2024-02-26T12:25:28;76622.09;;;11.51
45393;BMP280;31129;44.810;10.334;2024-02-26T12:27:54;76634.13;;;11.62
45393;BMP280;31129;44.810;10.334;2024-02-26T12:30:23;76621.00;;;11.53
45393;BMP280;31129;44.810;10.334;2024-02-26T12:32:52;76610.09;;;11.45
45393;BMP280;31129;44.810;10.334;2024-02-26T12:35:22;76621.00;;;11.53
45393;BMP280;31129;44.810;10.334;2024-02-26T12:37:48;76629.72;;;11.58
45393;BMP280;31129;44.810;10.334;2024-02-26T12:40:13;76627.06;;;11.61
45393;BMP280;31129;44.810;10.334;2024-02-26T12:42:39;76634.69;;;11.65
45393;BMP280;31129;44.810;10.334;2024-02-26T12:45:10;76644.50;;;11.69
45393;BMP280;31129;44.810;10.334;2024-02-26T12:47:40;76643.97;;;11.71
45393;BMP280;31129;44.810;10.334;2024-02-26T12:50:07;76637.97;;;11.66
45393;BMP280;31129;44.810;10.334;2024-02-26T12:52:34;76623.69;;;11.50
45393;BMP280;31129;44.810;10.334;2024-02-26T12:55:01;76614.94;;;11.45
45393;BMP280;31129;44.810;10.334;2024-02-26T12:57:31;76624.81;;;11.54
45393;BMP280;31129;44.810;10.334;2024-02-26T12:59:58;76643.97;;;11.69
45393;BMP280;31129;44.810;10.334;2024-02-26T13:02:25;76640.09;;;11.63
45393;BMP280;31129;44.810;10.334;2024-02-26T13:04:51;76630.84;;;11.59
45393;BMP280;31129;44.810;10.334;2024-02-26T13:07:16;76648.91;;;11.76
45393;BMP280;31129;44.810;10.334;2024-02-26T13:09:42;76651.03;;;11.73
45393;BMP280;31129;44.810;10.334;2024-02-26T13:12:09;76651.59;;;11.73
45393;BMP280;31129;44.810;10.334;2024-02-26T13:14:34;76649.94;;;11.72
45393;BMP280;31129;44.810;10.334;2024-02-26T13:17:01;76662.56;;;11.84
45393;BMP280;31129;44.810;10.334;2024-02-26T13:19:27;76658.72;;;11.80
45393;BMP280;31129;44.810;10.334;2024-02-26T13:21:53;76666.94;;;11.90
45393;BMP280;31129;44.810;10.334;2024-02-26T13:24:22;76657.63;;;11.79
45393;BMP280;31129;44.810;10.334;2024-02-26T13:26:54;76667.97;;;11.86
45393;BMP280;31129;44.810;10.334;2024-02-26T13:29:22;76647.75;;;11.70
45393;BMP280;31129;44.810;10.334;2024-02-26T13:31:47;76641.19;;;11.64
45393;BMP280;31129;44.810;10.334;2024-02-26T13:34:26;76633.00;;;11.59
45393;BMP280;31129;44.810;10.334;2024-02-26T13:36:53;76632.97;;;11.56
45393;BMP280;31129;44.810;10.334;2024-02-26T13:39:27;76642.88;;;11.68
45393;BMP280;31129;44.810;10.334;2024-02-26T13:41:54;76619.88;;;11.49
45393;BMP280;31129;44.810;10.334;2024-02-26T13:44:20;76627.00;;;11.56
45393;BMP280;31129;44.810;10.334;2024-02-26T13:46:46;76630.84;;;11.59
45393;BMP280;31129;44.810;10.334;2024-02-26T13:49:12;76624.28;;;11.53
45393;BMP280;31129;44.810;10.334;2024-02-26T13:51:41;76641.72;;;11.64
45393;BMP280;31129;44.810;10.334;2024-02-26T13:54:07;76633.00;;;11.59
45393;BMP280;31129;44.810;10.334;2024-02-26T13:56:33;76639.06;;;11.67
45393;BMP280;31129;44.810;10.334;2024-02-26T13:58:58;76639.03;;;11.64
45393;BMP280;31129;44.810;10.334;2024-02-26T14:01:25;76634.06;;;11.57